Portada
METAR-TAF:

METAR-TAF

Aeroports :

Joplin Regional Airport

Joplin, Missouri, Estats Units d'Amèrica

latitud: 37-09-22N, longitud: 094-30-02W, altitud: 299 m

Observació

L'informe es va fer fa 1 hora i 4 minuts, a les 05:53 UTC
Vent 5 kt del Sud-Est
Temperatura 24°C
Humitat 74%
Pressió 1023 hPa
Visibilitat: 16.1 km
Cel clar

METAR: KJLN 200553Z AUTO 14005KT 10SM CLR 24/19 A3021 RMK AO2 SLP218 T02440189 10306 20244 403220217 51007

Hora: 01:57 (06:57 UTC)

Pronòstic

L'informe es va fer fa 1 hora i 37 minuts, a les 05:20 UTC
Pronòstic vàlid del 20 a les 06 UTC al 21 a les 06 UTC
Vent 5 kt del Sud-Est
Visibilitat: 10 km
Núvols disperses a una alçada de 25000 ft
A partir de les 20 a les 1500 UTC
Vent 6 kt del Sud-Est
Visibilitat: 10 km
Cel ennuvolat a una alçada de 10000 ft

TAF: KJLN 200520Z 2006/2106 14005KT P6SM SCT250 FM201500 14006KT P6SM BKN100

Observacions i pronòstics meteorològics de més de 4000 aeroports (METAR i TAF).

Les estacions disponibles són els punts grocs i vermells al mapa.

Posi el ratolí al punt desitjat per veure el nom de l'estació.

Feu clic per veure les observacions i els pronòstics meteorològics.

Per canviar el mapa: feu clic els botons verds amb una creu de color negre per apropar; al botó verd amb un guió per allunyar la imatge; o en les fletxes verdes per a mapes adjacents.


METAR-TAF: